No particular awareness of the weather is required.    There are no Weather-warnings


Meteo18 Weather Cam more information Meteo18 Weather Cam


Thunder radar more information blitzortung!


Rain radar more information rain snow radar


Visit our other weather sites:

Template documentation
and downloads

And another site



Weather Underground History page Text

Daily Summary for October 28, 2017 Units:  English    Metric   Both
« Previous Day
Next Day »
Daily Weekly Monthly Yearly Custom
  High: Low: Average:
Temperature: TemperatureC °F 2.9 °F 8 °F
Dew Point: DewpointC °F 2.3 °F 5.7 °F
Humidity: Humidity % 63 % 86 %
Wind Speed: WindSpeedKMH mph 0.0 mph 1.5 mph
Wind Gust: WindSpeedGustKMH mph - -
Wind:- - West
Pressure: PressurehPa in 1027.0 in -
Precipitation: 0.3 in    
Historical Graphs
 
 
Tabular Data for October 28, 2017
Time Temperature Dew Point Pressure Wind Wind Speed Wind Gust Humidity Rainfall Rate (Hourly)
TemperatureC °F DewpointC °F PressurehPa in Calm     Humidity % HourlyPrecipMM in
00:02 8.6 °F 6.7 °F 1033.7 in Calm   3.2 mph 88 % 0.0 in
00:12 8.4 °F 6.5 °F 1033.7 in NNW 1.6 mph 3.2 mph 88 % 0.0 in
00:17 8.5 °F 6.6 °F 1033.7 in NW 1.6 mph 1.6 mph 88 % 0.0 in
00:22 8.4 °F 6.5 °F 1033.7 in NNW 4.8 mph 4.8 mph 88 % 0.0 in
00:27 8.4 °F 6.5 °F 1033.7 in Calm   3.2 mph 88 % 0.0 in
00:32 8.4 °F 6.5 °F 1033.7 in NNW 1.6 mph 6.4 mph 88 % 0.0 in
00:37 8.3 °F 6.4 °F 1033.7 in NNE 3.2 mph 6.4 mph 88 % 0.0 in
00:42 8.4 °F 6.5 °F 1033.7 in Calm   4.8 mph 88 % 0.0 in
00:47 8.3 °F 6.4 °F 1033.7 in North 1.6 mph 4.8 mph 88 % 0.0 in
00:52 8.2 °F 6.3 °F 1033.7 in Calm   4.8 mph 88 % 0.0 in
00:57 8.0 °F 6.1 °F 1033.7 in Calm   1.6 mph 88 % 0.0 in
01:02 7.8 °F 6.1 °F 1033.7 in NNW 1.6 mph 1.6 mph 89 % 0.0 in
01:12 7.8 °F 6.1 °F 1033.7 in Calm   1.6 mph 89 % 0.0 in
01:17 7.7 °F 6.2 °F 1033.7 in Calm   1.6 mph 90 % 0.0 in
01:22 7.7 °F 6.2 °F 1033.7 in Calm   1.6 mph 90 % 0.0 in
01:32 7.7 °F 6.2 °F 1033.7 in Calm   3.2 mph 90 % 0.0 in
01:37 7.7 °F 6.2 °F 1033.7 in Calm   3.2 mph 90 % 0.0 in
01:42 7.6 °F 6.1 °F 1033.7 in NW 1.6 mph 3.2 mph 90 % 0.0 in
01:52 7.4 °F 6.0 °F 1033.7 in WNW 1.6 mph 3.2 mph 91 % 0.0 in
02:02 7.4 °F 6.0 °F 1033.4 in Calm   3.2 mph 91 % 0.0 in
02:12 7.1 °F 5.9 °F 1033.4 in NW 1.6 mph 3.2 mph 92 % 0.0 in
02:17 6.9 °F 5.7 °F 1033.4 in WNW 1.6 mph 3.2 mph 92 % 0.0 in
02:22 6.8 °F 5.6 °F 1033.4 in WNW 3.2 mph 3.2 mph 92 % 0.0 in
02:32 6.8 °F 5.7 °F 1033.1 in WNW 1.6 mph 3.2 mph 93 % 0.0 in
02:37 6.8 °F 5.7 °F 1033.4 in NW 1.6 mph 3.2 mph 93 % 0.0 in
02:42 6.8 °F 5.7 °F 1033.1 in NW 1.6 mph 3.2 mph 93 % 0.0 in
02:47 7.1 °F 6.2 °F 1033.1 in NW 3.2 mph 4.8 mph 94 % 0.0 in
02:52 7.2 °F 6.1 °F 1033.1 in NW 1.6 mph 4.8 mph 93 % 0.0 in
02:57 7.2 °F 6.0 °F 1033.1 in NNW 3.2 mph 4.8 mph 92 % 0.0 in
03:02 7.3 °F 6.1 °F 1033.1 in NW 1.6 mph 4.8 mph 92 % 0.0 in
03:12 7.3 °F 6.1 °F 1033.1 in WNW 1.6 mph 4.8 mph 92 % 0.0 in
03:17 7.3 °F 6.1 °F 1033.1 in Calm   4.8 mph 92 % 0.0 in
03:32 6.7 °F 5.5 °F 1033.1 in NW 3.2 mph 3.2 mph 92 % 0.0 in
03:37 6.8 °F 5.7 °F 1032.7 in NW 1.6 mph 3.2 mph 93 % 0.0 in
03:42 6.9 °F 5.8 °F 1032.7 in Calm   3.2 mph 93 % 0.0 in
03:47 6.9 °F 5.8 °F 1032.7 in Calm   3.2 mph 93 % 0.0 in
03:52 6.8 °F 5.7 °F 1032.7 in Calm   3.2 mph 93 % 0.0 in
03:57 6.7 °F 5.5 °F 1032.7 in Calm   3.2 mph 92 % 0.0 in
04:02 6.6 °F 5.4 °F 1032.4 in Calm   3.2 mph 92 % 0.0 in
04:12 6.5 °F 5.4 °F 1032.4 in WNW 3.2 mph 3.2 mph 93 % 0.0 in
04:17 6.4 °F 5.4 °F 1032.4 in WNW 1.6 mph 3.2 mph 93 % 0.0 in
04:22 6.3 °F 5.3 °F 1032.4 in WNW 1.6 mph 3.2 mph 93 % 0.0 in
04:32 6.3 °F 5.4 °F 1032.4 in NW 1.6 mph 3.2 mph 94 % 0.0 in
04:42 6.3 °F 5.4 °F 1032.4 in Calm   3.2 mph 94 % 0.0 in
04:47 6.3 °F 5.4 °F 1032.4 in Calm   3.2 mph 94 % 0.0 in
04:52 6.3 °F 5.4 °F 1032.4 in Calm   3.2 mph 94 % 0.0 in
04:57 6.3 °F 5.4 °F 1032.4 in WNW 1.6 mph 4.8 mph 94 % 0.0 in
05:02 6.3 °F 5.4 °F 1032.4 in WNW 1.6 mph 4.8 mph 94 % 0.0 in
05:07 6.3 °F 5.4 °F 1032.4 in WNW 1.6 mph 3.2 mph 94 % 0.0 in
05:17 6.4 °F 5.5 °F 1032.4 in WNW 1.6 mph 3.2 mph 94 % 0.0 in
05:27 6.4 °F 5.5 °F 1032.4 in WNW 1.6 mph 3.2 mph 94 % 0.0 in
05:32 6.4 °F 5.5 °F 1032.4 in NW 3.2 mph 3.2 mph 94 % 0.0 in
05:42 6.4 °F 5.5 °F 1032.4 in Calm   3.2 mph 94 % 0.0 in
05:47 6.4 °F 5.5 °F 1032.4 in WNW 1.6 mph 3.2 mph 94 % 0.0 in
05:52 6.3 °F 5.4 °F 1032.1 in NW 1.6 mph 3.2 mph 94 % 0.0 in
05:57 6.4 °F 5.5 °F 1032.1 in NW 3.2 mph 3.2 mph 94 % 0.0 in
06:02 6.3 °F 5.4 °F 1032.1 in Calm   3.2 mph 94 % 0.0 in
06:07 6.2 °F 5.3 °F 1032.4 in WNW 1.6 mph 4.8 mph 94 % 0.0 in
06:12 6.2 °F 5.3 °F 1032.4 in Calm   4.8 mph 94 % 0.0 in
06:17 6.2 °F 5.5 °F 1032.4 in Calm   3.2 mph 95 % 0.0 in
06:22 6.1 °F 5.2 °F 1032.4 in Calm   3.2 mph 94 % 0.0 in
06:27 5.9 °F 5.0 °F 1032.4 in Calm   1.6 mph 94 % 0.0 in
06:32 6.0 °F 5.3 °F 1032.4 in Calm   1.6 mph 95 % 0.0 in
06:42 5.9 °F 5.2 °F 1032.4 in Calm   1.6 mph 95 % 0.0 in
06:47 5.8 °F 5.1 °F 1032.4 in Calm   1.6 mph 95 % 0.0 in
06:52 5.8 °F 5.1 °F 1032.4 in Calm   3.2 mph 95 % 0.0 in
06:57 5.7 °F 5.0 °F 1032.4 in Calm   3.2 mph 95 % 0.0 in
07:02 5.6 °F 4.9 °F 1032.4 in North 1.6 mph 3.2 mph 95 % 0.0 in
07:12 5.3 °F 4.6 °F 1032.4 in Calm   3.2 mph 95 % 0.0 in
07:17 5.1 °F 4.4 °F 1032.4 in Calm   3.2 mph 95 % 0.0 in
07:22 4.8 °F 3.9 °F 1032.4 in Calm   3.2 mph 94 % 0.0 in
07:32 4.8 °F 4.1 °F 1032.4 in Calm   1.6 mph 95 % 0.0 in
07:42 4.8 °F 4.1 °F 1032.4 in Calm   1.6 mph 95 % 0.0 in
07:47 4.9 °F 4.3 °F 1032.4 in Calm     96 % 0.0 in
07:52 5.1 °F 4.5 °F 1032.4 in Calm     96 % 0.0 in
07:57 5.0 °F 4.4 °F 1032.4 in Calm   1.6 mph 96 % 0.0 in
08:02 4.8 °F 4.1 °F 1032.4 in Calm   1.6 mph 95 % 0.0 in
08:07 4.5 °F 3.8 °F 1032.7 in Calm   1.6 mph 95 % 0.0 in
08:12 4.4 °F 3.8 °F 1032.4 in Calm   1.6 mph 96 % 0.0 in
08:17 4.3 °F 3.6 °F 1032.4 in Calm     95 % 0.0 in
08:22 4.2 °F 3.6 °F 1032.4 in Calm     96 % 0.0 in
08:32 3.9 °F 3.3 °F 1032.4 in Calm     96 % 0.0 in
08:42 3.8 °F 3.2 °F 1032.4 in Calm     96 % 0.3 in
08:47 3.5 °F 2.8 °F 1032.4 in Calm     95 % 0.3 in
08:52 3.3 °F 2.6 °F 1032.7 in Calm     95 % 0.3 in
08:57 3.1 °F 2.4 °F 1032.7 in Calm     95 % 0.3 in
09:02 2.9 °F 2.3 °F 1032.7 in Calm     96 % 0.3 in
09:12 2.9 °F 2.3 °F 1033.1 in Calm     96 % 0.3 in
09:22 3.1 °F 2.5 °F 1033.1 in Calm     96 % 0.3 in
09:32 3.5 °F 2.9 °F 1033.1 in Calm     96 % 0.3 in
09:37 3.7 °F 3.1 °F 1033.1 in Calm     96 % 0.0 in
09:42 3.4 °F 2.7 °F 1033.1 in Calm     95 % 0.0 in
09:52 3.2 °F 2.5 °F 1033.1 in Calm     95 % 0.0 in
09:57 3.4 °F 2.8 °F 1033.1 in Calm   1.6 mph 96 % 0.0 in
10:02 3.5 °F 2.9 °F 1033.1 in Calm   1.6 mph 96 % 0.0 in
10:07 3.6 °F 3.0 °F 1032.7 in Calm   1.6 mph 96 % 0.0 in
10:12 3.9 °F 3.3 °F 1033.1 in Calm   1.6 mph 96 % 0.0 in
10:17 4.3 °F 3.7 °F 1032.7 in Calm   1.6 mph 96 % 0.0 in
10:22 4.6 °F 4.0 °F 1033.1 in Calm   1.6 mph 96 % 0.0 in
10:32 5.6 °F 5.0 °F 1032.7 in Calm     96 % 0.0 in
10:42 6.1 °F 5.4 °F 1032.7 in South 3.2 mph   95 % 0.0 in
10:47 6.2 °F 5.3 °F 1032.7 in Calm   3.2 mph 94 % 0.0 in
10:52 6.4 °F 5.5 °F 1032.7 in Calm   3.2 mph 94 % 0.0 in
11:02 7.1 °F 6.2 °F 1032.7 in Calm   3.2 mph 94 % 0.0 in
11:12 7.8 °F 6.9 °F 1032.4 in Calm   3.2 mph 94 % 0.0 in
11:17 8.2 °F 7.3 °F 1032.4 in Calm   3.2 mph 94 % 0.0 in
11:22 8.5 °F 7.4 °F 1032.4 in SSE 1.6 mph 3.2 mph 93 % 0.0 in
11:32 8.9 °F 7.7 °F 1032.1 in Calm   3.2 mph 92 % 0.0 in
11:42 9.3 °F 7.9 °F 1032.1 in Calm   3.2 mph 91 % 0.0 in
11:47 9.5 °F 7.9 °F 1032.1 in SW 1.6 mph 3.2 mph 90 % 0.0 in
11:52 9.5 °F 8.1 °F 1032.1 in Calm   3.2 mph 91 % 0.0 in
11:57 9.5 °F 7.9 °F 1032.1 in Calm   6.4 mph 90 % 0.0 in
12:02 9.7 °F 8.3 °F 1032.1 in SSE 1.6 mph 6.4 mph 91 % 0.0 in
12:07 9.8 °F 8.2 °F 1032.1 in Calm   3.2 mph 90 % 0.0 in
12:12 9.8 °F 8.2 °F 1032.1 in SE 3.2 mph 3.2 mph 90 % 0.0 in
12:22 9.9 °F 8.3 °F 1032.1 in Calm   4.8 mph 90 % 0.0 in
12:27 10.1 °F 8.4 °F 1032.4 in Calm   4.8 mph 89 % 0.0 in
12:32 10.1 °F 8.4 °F 1032.1 in Calm   4.8 mph 89 % 0.0 in
12:37 10.2 °F 8.5 °F 1032.1 in Calm   1.6 mph 89 % 0.0 in
12:42 10.5 °F 8.8 °F 1032.1 in Calm   1.6 mph 89 % 0.0 in
12:47 10.7 °F 8.8 °F 1032.1 in Calm   1.6 mph 88 % 0.0 in
12:52 10.7 °F 8.6 °F 1032.1 in Calm   1.6 mph 87 % 0.0 in
12:57 10.7 °F 8.6 °F 1031.7 in SSW 3.2 mph 3.2 mph 87 % 0.0 in
13:02 10.8 °F 8.7 °F 1031.4 in SE 1.6 mph 8.0 mph 87 % 0.0 in
13:12 11.1 °F 8.3 °F 1031.0 in Calm   8.0 mph 83 % 0.0 in
13:17 11.3 °F 8.3 °F 1031.0 in SSW 4.8 mph 6.4 mph 82 % 0.0 in
13:22 11.6 °F 8.3 °F 1031.0 in Calm   6.4 mph 80 % 0.0 in
13:32 11.6 °F 5.7 °F 1030.7 in WNW 3.2 mph 4.8 mph 67 % 0.0 in
13:37 11.7 °F 5.8 °F 1030.4 in West 4.8 mph 9.7 mph 67 % 0.0 in
13:42 11.8 °F 5.4 °F 1030.7 in West 3.2 mph 9.7 mph 65 % 0.0 in
13:47 11.9 °F 5.1 °F 1030.4 in WNW 3.2 mph 9.7 mph 63 % 0.0 in
13:52 12.1 °F 5.3 °F 1030.7 in West 3.2 mph 9.7 mph 63 % 0.0 in
13:57 12.2 °F 5.6 °F 1030.7 in WSW 6.4 mph 14.5 mph 64 % 0.0 in
14:02 12.2 °F 5.6 °F 1030.7 in WNW 4.8 mph 14.5 mph 64 % 0.0 in
14:12 12.2 °F 6.0 °F 1030.4 in North 11.3 mph 14.5 mph 66 % 0.0 in
14:22 11.9 °F 5.7 °F 1030.4 in WNW 6.4 mph 14.5 mph 66 % 0.0 in
14:32 11.9 °F 6.0 °F 1030.4 in WNW 8.0 mph 14.5 mph 67 % 0.0 in
14:37 11.9 °F 6.0 °F 1030.4 in WNW 8.0 mph 12.9 mph 67 % 0.0 in
14:42 11.9 °F 6.0 °F 1030.4 in WNW 1.6 mph 12.9 mph 67 % 0.0 in
14:52 11.9 °F 6.4 °F 1030.4 in WNW 8.0 mph 12.9 mph 69 % 0.0 in
14:57 11.8 °F 6.7 °F 1030.0 in West 3.2 mph 14.5 mph 71 % 0.0 in
15:02 12.0 °F 6.9 °F 1030.0 in NNE 11.3 mph 14.5 mph 71 % 0.0 in
15:12 12.0 °F 6.7 °F 1029.7 in NNW 1.6 mph 16.1 mph 70 % 0.0 in
15:17 12.1 °F 6.6 °F 1029.7 in WNW 4.8 mph 16.1 mph 69 % 0.0 in
15:22 12.1 °F 6.2 °F 1029.7 in NW 11.3 mph 16.1 mph 67 % 0.0 in
15:32 12.3 °F 6.3 °F 1029.7 in WNW 3.2 mph 19.3 mph 67 % 0.0 in
15:37 12.5 °F 5.9 °F 1029.3 in WNW 4.8 mph 14.5 mph 64 % 0.0 in
15:42 12.5 °F 5.9 °F 1029.3 in WNW 9.7 mph 14.5 mph 64 % 0.0 in
15:52 12.4 °F 6.0 °F 1029.3 in WSW 6.4 mph 16.1 mph 65 % 0.0 in
16:02 12.3 °F 6.1 °F 1029.0 in WSW 6.4 mph 14.5 mph 66 % 0.0 in
16:12 12.4 °F 6.0 °F 1028.7 in WNW 4.8 mph 14.5 mph 65 % 0.0 in
16:17 12.5 °F 6.1 °F 1029.0 in WSW 4.8 mph 12.9 mph 65 % 0.0 in
16:22 12.7 °F 6.5 °F 1028.7 in WSW 3.2 mph 12.9 mph 66 % 0.0 in
16:27 12.7 °F 6.3 °F 1028.7 in West 3.2 mph 11.3 mph 65 % 0.0 in
16:32 12.6 °F 6.4 °F 1028.7 in SW 4.8 mph 11.3 mph 66 % 0.0 in
16:37 12.7 °F 6.5 °F 1028.7 in WSW 1.6 mph 11.3 mph 66 % 0.0 in
16:42 12.8 °F 6.6 °F 1028.7 in WSW 4.8 mph 11.3 mph 66 % 0.0 in
16:52 12.7 °F 6.3 °F 1028.7 in West 4.8 mph 6.4 mph 65 % 0.0 in
16:57 12.6 °F 6.4 °F 1028.7 in West 1.6 mph 11.3 mph 66 % 0.0 in
17:02 12.6 °F 6.4 °F 1028.7 in Calm   11.3 mph 66 % 0.0 in
17:12 12.8 °F 6.4 °F 1028.7 in West 6.4 mph 11.3 mph 65 % 0.0 in
17:17 12.7 °F 6.5 °F 1028.7 in NW 3.2 mph 9.7 mph 66 % 0.0 in
17:22 12.6 °F 6.6 °F 1028.7 in WSW 3.2 mph 9.7 mph 67 % 0.0 in
17:27 12.5 °F 6.5 °F 1028.3 in West 4.8 mph 12.9 mph 67 % 0.0 in
17:32 12.5 °F 6.5 °F 1028.3 in WNW 4.8 mph 12.9 mph 67 % 0.0 in
17:42 12.4 °F 6.4 °F 1028.3 in WNW 8.0 mph 12.9 mph 67 % 0.0 in
17:47 12.3 °F 6.6 °F 1028.3 in West 4.8 mph 12.9 mph 68 % 0.0 in
17:52 12.3 °F 6.8 °F 1028.3 in SW 4.8 mph 12.9 mph 69 % 0.0 in
17:57 12.2 °F 6.7 °F 1028.3 in West 4.8 mph 12.9 mph 69 % 0.0 in
18:02 12.1 °F 6.8 °F 1028.3 in West 4.8 mph 12.9 mph 70 % 0.0 in
18:12 12.0 °F 6.7 °F 1028.0 in West 4.8 mph 8.0 mph 70 % 0.0 in
18:17 11.9 °F 6.6 °F 1028.0 in West 4.8 mph 9.7 mph 70 % 0.0 in
18:22 11.9 °F 6.6 °F 1028.0 in West 3.2 mph 8.0 mph 70 % 0.0 in
18:32 11.6 °F 6.5 °F 1028.0 in West 1.6 mph 8.0 mph 71 % 0.0 in
18:37 11.3 °F 6.4 °F 1028.0 in Calm   8.0 mph 72 % 0.0 in
18:47 10.9 °F 6.4 °F 1028.0 in Calm   6.4 mph 74 % 0.0 in
18:52 10.7 °F 6.4 °F 1028.0 in West 1.6 mph 3.2 mph 75 % 0.0 in
18:57 10.6 °F 6.5 °F 1028.0 in Calm   3.2 mph 76 % 0.0 in
19:02 10.3 °F 6.4 °F 1028.0 in Calm   3.2 mph 77 % 0.0 in
19:12 9.8 °F 6.3 °F 1028.0 in Calm   3.2 mph 79 % 0.0 in
19:17 9.6 °F 6.3 °F 1028.0 in Calm   1.6 mph 80 % 0.0 in
19:22 9.6 °F 6.3 °F 1028.0 in WSW 1.6 mph 1.6 mph 80 % 0.0 in
19:32 9.4 °F 6.3 °F 1028.0 in West 1.6 mph 3.2 mph 81 % 0.0 in
19:42 9.1 °F 6.2 °F 1028.3 in Calm   3.2 mph 82 % 0.0 in
19:52 8.9 °F 6.2 °F 1028.3 in Calm   1.6 mph 83 % 0.0 in
19:57 8.8 °F 6.2 °F 1028.3 in Calm     84 % 0.0 in
20:02 8.6 °F 6.0 °F 1028.3 in Calm     84 % 0.0 in
20:12 8.5 °F 6.1 °F 1028.3 in Calm     85 % 0.0 in
20:17 8.5 °F 6.1 °F 1028.3 in Calm     85 % 0.0 in
20:22 8.4 °F 6.0 °F 1028.3 in Calm     85 % 0.0 in
20:27 8.3 °F 5.9 °F 1028.3 in Calm     85 % 0.0 in
20:32 8.2 °F 5.8 °F 1028.3 in Calm     85 % 0.0 in
20:37 8.0 °F 5.8 °F 1028.3 in Calm     86 % 0.0 in
20:42 7.9 °F 5.9 °F 1028.3 in Calm     87 % 0.0 in
20:52 7.8 °F 5.8 °F 1028.3 in Calm     87 % 0.0 in
21:02 7.7 °F 5.7 °F 1028.3 in Calm     87 % 0.0 in
21:07 7.5 °F 5.5 °F 1028.3 in Calm     87 % 0.0 in
21:12 7.6 °F 5.9 °F 1028.3 in Calm     89 % 0.0 in
21:17 7.8 °F 6.1 °F 1028.0 in Calm     89 % 0.0 in
21:22 7.6 °F 5.6 °F 1028.0 in Calm     87 % 0.0 in
21:32 7.3 °F 5.6 °F 1028.0 in Calm     89 % 0.0 in
21:42 7.1 °F 5.2 °F 1028.3 in Calm   1.6 mph 88 % 0.0 in
21:47 6.9 °F 5.4 °F 1028.0 in Calm   1.6 mph 90 % 0.0 in
21:52 6.9 °F 5.4 °F 1028.0 in Calm   1.6 mph 90 % 0.0 in
21:57 6.9 °F 5.4 °F 1028.0 in Calm   1.6 mph 90 % 0.0 in
22:02 6.9 °F 5.4 °F 1028.0 in Calm   1.6 mph 90 % 0.0 in
22:12 6.4 °F 4.9 °F 1028.0 in Calm     90 % 0.0 in
22:17 6.3 °F 4.8 °F 1028.0 in Calm     90 % 0.0 in
22:22 6.1 °F 4.6 °F 1028.0 in South 1.6 mph   90 % 0.0 in
22:27 6.0 °F 4.6 °F 1028.0 in South 1.6 mph 1.6 mph 91 % 0.0 in
22:32 5.8 °F 4.4 °F 1028.0 in SSE 1.6 mph 1.6 mph 91 % 0.0 in
22:42 5.7 °F 4.5 °F 1028.0 in Calm   3.2 mph 92 % 0.0 in
22:47 5.7 °F 4.5 °F 1028.0 in Calm   3.2 mph 92 % 0.0 in
22:52 5.6 °F 4.4 °F 1028.0 in Calm   3.2 mph 92 % 0.0 in
22:57 5.5 °F 4.3 °F 1027.7 in Calm     92 % 0.0 in
23:02 5.5 °F 4.5 °F 1027.7 in Calm     93 % 0.0 in
23:12 5.5 °F 4.5 °F 1027.7 in Calm   1.6 mph 93 % 0.0 in
23:17 5.4 °F 4.4 °F 1027.7 in Calm   1.6 mph 93 % 0.0 in
23:22 5.5 °F 4.6 °F 1027.7 in Calm   1.6 mph 94 % 0.0 in
23:27 5.5 °F 4.5 °F 1027.7 in Calm   1.6 mph 93 % 0.0 in
23:32 5.6 °F 4.6 °F 1027.7 in Calm   1.6 mph 93 % 0.0 in
23:37 5.7 °F 4.8 °F 1027.7 in WSW 1.6 mph 1.6 mph 94 % 0.0 in
23:42 6.1 °F 5.2 °F 1027.3 in Calm   1.6 mph 94 % 0.0 in
23:47 6.2 °F 5.2 °F 1027.3 in SW 1.6 mph 3.2 mph 93 % 0.0 in
23:52 6.0 °F 4.8 °F 1027.3 in Calm   3.2 mph 92 % 0.0 in
23:57 5.9 °F 4.7 °F 1027.0 in Calm   1.6 mph 92 % 0.0 in
Meteo18
Compliments of Weather Underground - 4 mb

Script developed by  Jim McMurry - jmcmurry@mwt.net Adapted for the template by  Wim van der Kuil - Leuven-Template.eu

You find our weather info also at:

European Weather Network

Weather Underground

Equipment we use:

Weather-station
Davis Vue

Weather-program
Meteobridge

Weather-server
Raspberry PI 2 B+

Provider
1 and 1

Davis Vue

Meteobridge

Raspberry PI 2 B+

1 and 1